sensor_id;sensor_type;location;lat;lon;timestamp;temperature;humidity
20479;DHT22;10398;52.490;13.434;2023-05-10T00:01:38;14.20;94.10
20479;DHT22;10398;52.490;13.434;2023-05-10T00:04:03;14.10;94.20
20479;DHT22;10398;52.490;13.434;2023-05-10T00:06:29;14.10;94.40
20479;DHT22;10398;52.490;13.434;2023-05-10T00:08:55;14.00;94.50
20479;DHT22;10398;52.490;13.434;2023-05-10T00:11:21;13.90;94.60
20479;DHT22;10398;52.490;13.434;2023-05-10T00:13:46;13.90;94.70
20479;DHT22;10398;52.490;13.434;2023-05-10T00:16:12;13.90;94.90
20479;DHT22;10398;52.490;13.434;2023-05-10T00:18:39;14.00;94.70
20479;DHT22;10398;52.490;13.434;2023-05-10T00:21:05;13.90;94.90
20479;DHT22;10398;52.490;13.434;2023-05-10T00:23:31;13.80;94.90
20479;DHT22;10398;52.490;13.434;2023-05-10T00:25:57;13.90;95.20
20479;DHT22;10398;52.490;13.434;2023-05-10T00:28:22;13.90;95.20
20479;DHT22;10398;52.490;13.434;2023-05-10T00:30:48;13.90;95.10
20479;DHT22;10398;52.490;13.434;2023-05-10T00:33:14;13.90;95.10
20479;DHT22;10398;52.490;13.434;2023-05-10T00:35:39;13.70;95.30
20479;DHT22;10398;52.490;13.434;2023-05-10T00:38:05;13.80;95.60
20479;DHT22;10398;52.490;13.434;2023-05-10T00:40:31;13.80;95.50
20479;DHT22;10398;52.490;13.434;2023-05-10T00:42:57;13.70;95.60
20479;DHT22;10398;52.490;13.434;2023-05-10T00:45:23;13.60;95.80
20479;DHT22;10398;52.490;13.434;2023-05-10T00:47:50;13.70;95.90
20479;DHT22;10398;52.490;13.434;2023-05-10T00:50:20;13.70;95.90
20479;DHT22;10398;52.490;13.434;2023-05-10T00:52:46;13.70;96.10
20479;DHT22;10398;52.490;13.434;2023-05-10T00:55:12;13.70;96.00
20479;DHT22;10398;52.490;13.434;2023-05-10T00:57:38;13.60;96.00
20479;DHT22;10398;52.490;13.434;2023-05-10T01:00:04;13.60;96.20
20479;DHT22;10398;52.490;13.434;2023-05-10T01:02:30;13.70;96.20
20479;DHT22;10398;52.490;13.434;2023-05-10T01:04:56;13.60;96.10
20479;DHT22;10398;52.490;13.434;2023-05-10T01:07:21;13.70;96.20
20479;DHT22;10398;52.490;13.434;2023-05-10T01:09:47;13.70;96.20
20479;DHT22;10398;52.490;13.434;2023-05-10T01:12:13;13.50;96.20
20479;DHT22;10398;52.490;13.434;2023-05-10T01:14:39;13.50;96.60
20479;DHT22;10398;52.490;13.434;2023-05-10T01:17:06;13.50;96.50
20479;DHT22;10398;52.490;13.434;2023-05-10T01:19:34;13.40;96.50
20479;DHT22;10398;52.490;13.434;2023-05-10T01:35:51;13.30;97.20
20479;DHT22;10398;52.490;13.434;2023-05-10T01:41:24;13.20;97.40
20479;DHT22;10398;52.490;13.434;2023-05-10T01:46:36;13.20;97.40
20479;DHT22;10398;52.490;13.434;2023-05-10T01:49:19;13.10;97.50
20479;DHT22;10398;52.490;13.434;2023-05-10T01:51:49;13.00;97.80
20479;DHT22;10398;52.490;13.434;2023-05-10T01:54:19;13.00;97.90
20479;DHT22;10398;52.490;13.434;2023-05-10T01:56:47;13.00;98.00
20479;DHT22;10398;52.490;13.434;2023-05-10T01:59:18;13.00;98.00
20479;DHT22;10398;52.490;13.434;2023-05-10T02:01:45;13.00;98.20
20479;DHT22;10398;52.490;13.434;2023-05-10T02:04:15;12.90;98.10
20479;DHT22;10398;52.490;13.434;2023-05-10T02:06:42;12.90;98.20
20479;DHT22;10398;52.490;13.434;2023-05-10T02:09:10;13.00;98.60
20479;DHT22;10398;52.490;13.434;2023-05-10T02:11:38;12.90;98.30
20479;DHT22;10398;52.490;13.434;2023-05-10T02:14:07;12.90;98.70
20479;DHT22;10398;52.490;13.434;2023-05-10T02:16:35;12.80;98.60
20479;DHT22;10398;52.490;13.434;2023-05-10T02:19:02;12.80;98.80
20479;DHT22;10398;52.490;13.434;2023-05-10T02:21:29;12.90;98.90
20479;DHT22;10398;52.490;13.434;2023-05-10T02:23:57;12.80;98.80
20479;DHT22;10398;52.490;13.434;2023-05-10T02:26:23;12.70;99.00
20479;DHT22;10398;52.490;13.434;2023-05-10T02:28:51;12.60;99.20
20479;DHT22;10398;52.490;13.434;2023-05-10T02:31:18;12.50;99.50
20479;DHT22;10398;52.490;13.434;2023-05-10T02:33:44;12.60;99.50
20479;DHT22;10398;52.490;13.434;2023-05-10T02:36:12;12.70;99.50
20479;DHT22;10398;52.490;13.434;2023-05-10T02:38:39;12.70;99.60
20479;DHT22;10398;52.490;13.434;2023-05-10T02:41:05;12.70;99.60
20479;DHT22;10398;52.490;13.434;2023-05-10T02:43:33;12.60;99.70
20479;DHT22;10398;52.490;13.434;2023-05-10T02:45:59;12.60;99.90
20479;DHT22;10398;52.490;13.434;2023-05-10T02:48:24;12.50;99.80
20479;DHT22;10398;52.490;13.434;2023-05-10T02:50:52;12.50;99.90
20479;DHT22;10398;52.490;13.434;2023-05-10T02:53:31;12.60;99.90
20479;DHT22;10398;52.490;13.434;2023-05-10T02:55:59;12.60;99.90
20479;DHT22;10398;52.490;13.434;2023-05-10T02:58:26;12.50;99.90
20479;DHT22;10398;52.490;13.434;2023-05-10T03:00:52;12.50;99.90
20479;DHT22;10398;52.490;13.434;2023-05-10T03:03:17;12.60;99.90
20479;DHT22;10398;52.490;13.434;2023-05-10T03:05:43;12.40;99.90
20479;DHT22;10398;52.490;13.434;2023-05-10T03:08:09;12.40;99.90
20479;DHT22;10398;52.490;13.434;2023-05-10T03:11:15;12.50;99.90
20479;DHT22;10398;52.490;13.434;2023-05-10T03:16:39;12.40;99.90
20479;DHT22;10398;52.490;13.434;2023-05-10T03:19:26;12.20;99.90
20479;DHT22;10398;52.490;13.434;2023-05-10T03:21:53;12.20;99.90
20479;DHT22;10398;52.490;13.434;2023-05-10T03:24:21;12.20;99.90
20479;DHT22;10398;52.490;13.434;2023-05-10T03:26:49;12.20;99.90
20479;DHT22;10398;52.490;13.434;2023-05-10T03:29:17;12.20;99.90
20479;DHT22;10398;52.490;13.434;2023-05-10T03:31:43;12.20;99.90
20479;DHT22;10398;52.490;13.434;2023-05-10T03:34:09;12.30;99.90
20479;DHT22;10398;52.490;13.434;2023-05-10T03:36:35;12.30;99.90
20479;DHT22;10398;52.490;13.434;2023-05-10T03:39:01;12.20;99.90
20479;DHT22;10398;52.490;13.434;2023-05-10T03:41:27;12.20;99.90
20479;DHT22;10398;52.490;13.434;2023-05-10T03:43:53;12.30;99.90
20479;DHT22;10398;52.490;13.434;2023-05-10T03:46:19;12.20;99.90
20479;DHT22;10398;52.490;13.434;2023-05-10T03:48:45;12.30;99.90
20479;DHT22;10398;52.490;13.434;2023-05-10T03:51:10;12.30;99.90
20479;DHT22;10398;52.490;13.434;2023-05-10T03:53:36;12.20;99.90
20479;DHT22;10398;52.490;13.434;2023-05-10T03:56:02;12.20;99.90
20479;DHT22;10398;52.490;13.434;2023-05-10T03:58:27;12.10;99.90
20479;DHT22;10398;52.490;13.434;2023-05-10T04:00:53;12.10;99.90
20479;DHT22;10398;52.490;13.434;2023-05-10T04:03:18;12.00;99.90
20479;DHT22;10398;52.490;13.434;2023-05-10T04:05:45;12.10;99.90
20479;DHT22;10398;52.490;13.434;2023-05-10T04:08:11;12.10;99.90
20479;DHT22;10398;52.490;13.434;2023-05-10T04:10:36;12.10;99.90
20479;DHT22;10398;52.490;13.434;2023-05-10T04:13:02;12.20;99.90
20479;DHT22;10398;52.490;13.434;2023-05-10T04:15:27;12.20;99.90
20479;DHT22;10398;52.490;13.434;2023-05-10T04:17:53;12.10;99.90
20479;DHT22;10398;52.490;13.434;2023-05-10T04:20:19;12.20;99.90
20479;DHT22;10398;52.490;13.434;2023-05-10T04:22:45;12.30;99.90
20479;DHT22;10398;52.490;13.434;2023-05-10T04:25:10;12.30;99.90
20479;DHT22;10398;52.490;13.434;2023-05-10T04:27:36;12.20;99.90
20479;DHT22;10398;52.490;13.434;2023-05-10T04:30:02;12.10;99.90
20479;DHT22;10398;52.490;13.434;2023-05-10T04:32:28;12.10;99.90
20479;DHT22;10398;52.490;13.434;2023-05-10T04:34:53;12.10;99.90
20479;DHT22;10398;52.490;13.434;2023-05-10T04:37:19;12.10;99.90
20479;DHT22;10398;52.490;13.434;2023-05-10T04:39:46;12.10;99.90
20479;DHT22;10398;52.490;13.434;2023-05-10T04:42:12;12.10;99.90
20479;DHT22;10398;52.490;13.434;2023-05-10T04:44:40;12.20;99.90
20479;DHT22;10398;52.490;13.434;2023-05-10T04:47:06;12.20;99.90
20479;DHT22;10398;52.490;13.434;2023-05-10T04:49:31;12.30;99.90
20479;DHT22;10398;52.490;13.434;2023-05-10T04:51:57;12.30;99.90
20479;DHT22;10398;52.490;13.434;2023-05-10T04:54:23;12.30;99.90
20479;DHT22;10398;52.490;13.434;2023-05-10T04:56:49;12.30;99.90
20479;DHT22;10398;52.490;13.434;2023-05-10T04:59:15;12.30;99.90
20479;DHT22;10398;52.490;13.434;2023-05-10T05:01:40;12.30;99.90
20479;DHT22;10398;52.490;13.434;2023-05-10T05:04:06;12.30;99.90
20479;DHT22;10398;52.490;13.434;2023-05-10T05:06:32;12.40;99.90
20479;DHT22;10398;52.490;13.434;2023-05-10T05:08:58;12.40;99.90
20479;DHT22;10398;52.490;13.434;2023-05-10T05:11:23;12.50;99.90
20479;DHT22;10398;52.490;13.434;2023-05-10T05:13:49;12.50;99.90
20479;DHT22;10398;52.490;13.434;2023-05-10T05:16:14;12.50;99.90
20479;DHT22;10398;52.490;13.434;2023-05-10T05:18:40;12.50;99.90
20479;DHT22;10398;52.490;13.434;2023-05-10T05:21:16;12.60;99.90
20479;DHT22;10398;52.490;13.434;2023-05-10T05:23:43;12.70;99.90
20479;DHT22;10398;52.490;13.434;2023-05-10T05:26:09;12.70;99.90
20479;DHT22;10398;52.490;13.434;2023-05-10T05:28:35;12.70;99.90
20479;DHT22;10398;52.490;13.434;2023-05-10T05:31:03;12.80;99.90
20479;DHT22;10398;52.490;13.434;2023-05-10T05:33:29;12.80;99.90
20479;DHT22;10398;52.490;13.434;2023-05-10T05:35:56;12.90;99.90
20479;DHT22;10398;52.490;13.434;2023-05-10T05:38:22;13.00;99.90
20479;DHT22;10398;52.490;13.434;2023-05-10T05:40:47;13.00;99.90
20479;DHT22;10398;52.490;13.434;2023-05-10T05:43:13;13.00;99.90
20479;DHT22;10398;52.490;13.434;2023-05-10T05:45:39;13.20;99.90
20479;DHT22;10398;52.490;13.434;2023-05-10T05:48:05;13.10;99.90
20479;DHT22;10398;52.490;13.434;2023-05-10T05:50:30;13.30;99.90
20479;DHT22;10398;52.490;13.434;2023-05-10T05:52:56;13.30;99.90
20479;DHT22;10398;52.490;13.434;2023-05-10T05:55:22;13.40;99.90
20479;DHT22;10398;52.490;13.434;2023-05-10T05:57:49;13.60;99.90
20479;DHT22;10398;52.490;13.434;2023-05-10T06:00:15;13.70;99.90
20479;DHT22;10398;52.490;13.434;2023-05-10T06:02:41;14.00;99.90
20479;DHT22;10398;52.490;13.434;2023-05-10T06:05:07;14.10;99.60
20479;DHT22;10398;52.490;13.434;2023-05-10T06:07:33;14.00;99.70
20479;DHT22;10398;52.490;13.434;2023-05-10T06:09:59;14.20;99.60
20479;DHT22;10398;52.490;13.434;2023-05-10T06:12:24;14.20;99.50
20479;DHT22;10398;52.490;13.434;2023-05-10T06:14:50;14.30;99.40
20479;DHT22;10398;52.490;13.434;2023-05-10T06:17:16;14.30;99.10
20479;DHT22;10398;52.490;13.434;2023-05-10T06:19:42;14.30;99.50
20479;DHT22;10398;52.490;13.434;2023-05-10T06:22:07;14.50;99.40
20479;DHT22;10398;52.490;13.434;2023-05-10T06:24:33;14.50;99.10
20479;DHT22;10398;52.490;13.434;2023-05-10T06:26:58;14.60;98.90
20479;DHT22;10398;52.490;13.434;2023-05-10T06:29:25;14.70;99.10
20479;DHT22;10398;52.490;13.434;2023-05-10T06:31:51;14.70;99.00
20479;DHT22;10398;52.490;13.434;2023-05-10T06:34:17;14.70;98.90
20479;DHT22;10398;52.490;13.434;2023-05-10T06:36:43;14.50;98.80
20479;DHT22;10398;52.490;13.434;2023-05-10T06:39:08;14.50;98.90
20479;DHT22;10398;52.490;13.434;2023-05-10T06:41:34;14.60;98.80
20479;DHT22;10398;52.490;13.434;2023-05-10T06:43:59;14.60;99.20
20479;DHT22;10398;52.490;13.434;2023-05-10T06:46:25;14.70;99.30
20479;DHT22;10398;52.490;13.434;2023-05-10T06:48:51;14.70;98.90
20479;DHT22;10398;52.490;13.434;2023-05-10T06:51:16;14.80;98.90
20479;DHT22;10398;52.490;13.434;2023-05-10T06:53:42;14.90;98.70
20479;DHT22;10398;52.490;13.434;2023-05-10T06:56:08;14.80;98.70
20479;DHT22;10398;52.490;13.434;2023-05-10T06:58:34;14.70;98.80
20479;DHT22;10398;52.490;13.434;2023-05-10T07:01:03;14.80;99.20
20479;DHT22;10398;52.490;13.434;2023-05-10T07:03:29;14.90;99.40
20479;DHT22;10398;52.490;13.434;2023-05-10T07:06:00;14.90;98.80
20479;DHT22;10398;52.490;13.434;2023-05-10T07:08:28;14.90;98.90
20479;DHT22;10398;52.490;13.434;2023-05-10T07:11:02;14.90;98.70
20479;DHT22;10398;52.490;13.434;2023-05-10T07:13:30;15.00;98.80
20479;DHT22;10398;52.490;13.434;2023-05-10T07:15:56;15.00;98.80
20479;DHT22;10398;52.490;13.434;2023-05-10T07:18:21;15.10;99.00
20479;DHT22;10398;52.490;13.434;2023-05-10T07:20:47;15.20;98.80
20479;DHT22;10398;52.490;13.434;2023-05-10T07:23:12;15.30;98.90
20479;DHT22;10398;52.490;13.434;2023-05-10T07:25:38;15.40;98.40
20479;DHT22;10398;52.490;13.434;2023-05-10T07:28:04;15.40;98.40
20479;DHT22;10398;52.490;13.434;2023-05-10T07:30:29;15.40;98.40
20479;DHT22;10398;52.490;13.434;2023-05-10T07:32:56;15.50;98.50
20479;DHT22;10398;52.490;13.434;2023-05-10T07:35:21;15.60;98.10
20479;DHT22;10398;52.490;13.434;2023-05-10T07:37:47;15.60;98.20
20479;DHT22;10398;52.490;13.434;2023-05-10T07:40:13;15.70;98.50
20479;DHT22;10398;52.490;13.434;2023-05-10T07:42:38;15.70;98.10
20479;DHT22;10398;52.490;13.434;2023-05-10T07:45:04;15.80;98.20
20479;DHT22;10398;52.490;13.434;2023-05-10T07:47:30;15.80;98.00
20479;DHT22;10398;52.490;13.434;2023-05-10T07:49:56;15.80;97.90
20479;DHT22;10398;52.490;13.434;2023-05-10T07:52:21;15.90;98.10
20479;DHT22;10398;52.490;13.434;2023-05-10T07:54:47;16.00;98.30
20479;DHT22;10398;52.490;13.434;2023-05-10T07:57:13;16.10;98.00
20479;DHT22;10398;52.490;13.434;2023-05-10T07:59:40;16.20;98.00
20479;DHT22;10398;52.490;13.434;2023-05-10T08:02:06;16.30;97.90
20479;DHT22;10398;52.490;13.434;2023-05-10T08:04:32;16.40;97.70
20479;DHT22;10398;52.490;13.434;2023-05-10T08:06:58;16.40;97.80
20479;DHT22;10398;52.490;13.434;2023-05-10T08:09:23;16.50;97.30
20479;DHT22;10398;52.490;13.434;2023-05-10T08:11:50;16.40;96.90
20479;DHT22;10398;52.490;13.434;2023-05-10T08:14:16;16.50;97.20
20479;DHT22;10398;52.490;13.434;2023-05-10T08:16:42;16.60;96.80
20479;DHT22;10398;52.490;13.434;2023-05-10T08:19:07;16.60;97.10
20479;DHT22;10398;52.490;13.434;2023-05-10T08:21:33;16.70;97.00
20479;DHT22;10398;52.490;13.434;2023-05-10T08:23:59;16.80;97.10
20479;DHT22;10398;52.490;13.434;2023-05-10T08:26:24;16.90;97.00
20479;DHT22;10398;52.490;13.434;2023-05-10T08:28:51;17.00;96.30
20479;DHT22;10398;52.490;13.434;2023-05-10T08:31:16;17.10;96.70
20479;DHT22;10398;52.490;13.434;2023-05-10T08:33:43;17.20;96.70
20479;DHT22;10398;52.490;13.434;2023-05-10T08:36:09;17.30;97.40
20479;DHT22;10398;52.490;13.434;2023-05-10T08:38:34;17.50;97.30
20479;DHT22;10398;52.490;13.434;2023-05-10T08:41:01;17.70;97.00
20479;DHT22;10398;52.490;13.434;2023-05-10T08:43:28;17.80;96.40
20479;DHT22;10398;52.490;13.434;2023-05-10T08:45:55;17.80;96.40
20479;DHT22;10398;52.490;13.434;2023-05-10T08:48:23;17.90;95.80
20479;DHT22;10398;52.490;13.434;2023-05-10T08:50:53;18.00;96.00
20479;DHT22;10398;52.490;13.434;2023-05-10T08:53:21;18.10;96.00
20479;DHT22;10398;52.490;13.434;2023-05-10T08:55:49;18.30;95.70
20479;DHT22;10398;52.490;13.434;2023-05-10T08:58:15;18.30;95.10
20479;DHT22;10398;52.490;13.434;2023-05-10T09:00:41;18.40;94.90
20479;DHT22;10398;52.490;13.434;2023-05-10T09:03:06;18.50;94.90
20479;DHT22;10398;52.490;13.434;2023-05-10T09:05:32;18.50;95.10
20479;DHT22;10398;52.490;13.434;2023-05-10T09:07:58;18.70;95.20
20479;DHT22;10398;52.490;13.434;2023-05-10T09:10:26;18.80;95.00
20479;DHT22;10398;52.490;13.434;2023-05-10T09:12:53;18.90;94.40
20479;DHT22;10398;52.490;13.434;2023-05-10T09:15:21;18.90;94.00
20479;DHT22;10398;52.490;13.434;2023-05-10T09:17:47;18.90;94.30
20479;DHT22;10398;52.490;13.434;2023-05-10T09:20:14;19.00;94.60
20479;DHT22;10398;52.490;13.434;2023-05-10T09:22:40;19.10;94.10
20479;DHT22;10398;52.490;13.434;2023-05-10T09:25:11;19.20;94.30
20479;DHT22;10398;52.490;13.434;2023-05-10T09:27:38;19.30;93.80
20479;DHT22;10398;52.490;13.434;2023-05-10T09:30:04;19.30;93.70
20479;DHT22;10398;52.490;13.434;2023-05-10T09:32:43;19.40;93.90
20479;DHT22;10398;52.490;13.434;2023-05-10T09:35:14;19.50;94.00
20479;DHT22;10398;52.490;13.434;2023-05-10T09:37:42;19.60;93.70
20479;DHT22;10398;52.490;13.434;2023-05-10T09:40:20;19.70;93.60
20479;DHT22;10398;52.490;13.434;2023-05-10T09:42:58;19.70;93.30
20479;DHT22;10398;52.490;13.434;2023-05-10T09:45:26;19.80;93.60
20479;DHT22;10398;52.490;13.434;2023-05-10T09:47:53;19.90;93.30
20479;DHT22;10398;52.490;13.434;2023-05-10T09:50:19;19.90;93.00
20479;DHT22;10398;52.490;13.434;2023-05-10T09:52:56;19.90;93.20
20479;DHT22;10398;52.490;13.434;2023-05-10T09:55:44;20.00;93.10
20479;DHT22;10398;52.490;13.434;2023-05-10T09:58:12;20.10;92.90
20479;DHT22;10398;52.490;13.434;2023-05-10T10:00:43;20.10;92.60
20479;DHT22;10398;52.490;13.434;2023-05-10T10:03:35;20.20;92.80
20479;DHT22;10398;52.490;13.434;2023-05-10T10:06:07;20.20;92.40
20479;DHT22;10398;52.490;13.434;2023-05-10T10:08:34;20.20;92.20
20479;DHT22;10398;52.490;13.434;2023-05-10T10:11:00;20.30;92.40
20479;DHT22;10398;52.490;13.434;2023-05-10T10:13:26;20.30;91.60
20479;DHT22;10398;52.490;13.434;2023-05-10T10:15:54;20.50;92.00
20479;DHT22;10398;52.490;13.434;2023-05-10T10:18:20;20.60;91.80
20479;DHT22;10398;52.490;13.434;2023-05-10T10:20:53;20.60;91.60
20479;DHT22;10398;52.490;13.434;2023-05-10T10:23:19;20.70;91.10
20479;DHT22;10398;52.490;13.434;2023-05-10T10:25:45;20.80;91.30
20479;DHT22;10398;52.490;13.434;2023-05-10T10:30:55;20.90;90.40
20479;DHT22;10398;52.490;13.434;2023-05-10T10:36:03;21.10;90.90
20479;DHT22;10398;52.490;13.434;2023-05-10T10:41:35;21.20;89.10
20479;DHT22;10398;52.490;13.434;2023-05-10T10:44:33;21.20;89.70
20479;DHT22;10398;52.490;13.434;2023-05-10T10:55:14;21.50;90.10
20479;DHT22;10398;52.490;13.434;2023-05-10T11:02:44;21.90;88.50
20479;DHT22;10398;52.490;13.434;2023-05-10T11:07:57;22.00;86.60
20479;DHT22;10398;52.490;13.434;2023-05-10T11:10:24;22.00;86.70
20479;DHT22;10398;52.490;13.434;2023-05-10T11:13:04;22.10;86.00
20479;DHT22;10398;52.490;13.434;2023-05-10T11:15:38;22.10;86.80
20479;DHT22;10398;52.490;13.434;2023-05-10T11:18:18;22.20;85.70
20479;DHT22;10398;52.490;13.434;2023-05-10T11:20:56;22.30;85.20
20479;DHT22;10398;52.490;13.434;2023-05-10T11:23:22;22.40;86.10
20479;DHT22;10398;52.490;13.434;2023-05-10T11:25:48;22.50;84.20
20479;DHT22;10398;52.490;13.434;2023-05-10T11:28:16;22.50;84.20
20479;DHT22;10398;52.490;13.434;2023-05-10T11:30:43;22.50;83.60
20479;DHT22;10398;52.490;13.434;2023-05-10T11:33:14;22.60;83.90
20479;DHT22;10398;52.490;13.434;2023-05-10T11:35:40;22.80;84.40
20479;DHT22;10398;52.490;13.434;2023-05-10T11:38:11;22.80;84.40
20479;DHT22;10398;52.490;13.434;2023-05-10T11:40:38;22.80;84.20
20479;DHT22;10398;52.490;13.434;2023-05-10T11:43:04;22.90;84.40
20479;DHT22;10398;52.490;13.434;2023-05-10T11:45:35;23.00;83.20
20479;DHT22;10398;52.490;13.434;2023-05-10T11:48:01;23.20;82.10
20479;DHT22;10398;52.490;13.434;2023-05-10T11:50:28;23.30;81.50
20479;DHT22;10398;52.490;13.434;2023-05-10T11:52:55;23.20;79.70
20479;DHT22;10398;52.490;13.434;2023-05-10T11:55:21;23.20;79.80
20479;DHT22;10398;52.490;13.434;2023-05-10T11:57:47;23.20;79.80
20479;DHT22;10398;52.490;13.434;2023-05-10T12:00:14;23.10;80.00
20479;DHT22;10398;52.490;13.434;2023-05-10T12:02:40;23.10;78.50
20479;DHT22;10398;52.490;13.434;2023-05-10T12:05:06;22.90;78.70
20479;DHT22;10398;52.490;13.434;2023-05-10T12:07:32;23.00;78.60
20479;DHT22;10398;52.490;13.434;2023-05-10T12:10:08;23.20;79.50
20479;DHT22;10398;52.490;13.434;2023-05-10T12:12:42;23.20;78.80
20479;DHT22;10398;52.490;13.434;2023-05-10T12:15:19;23.40;79.30
20479;DHT22;10398;52.490;13.434;2023-05-10T12:17:46;23.60;79.60
20479;DHT22;10398;52.490;13.434;2023-05-10T12:22:52;23.60;78.40
20479;DHT22;10398;52.490;13.434;2023-05-10T12:25:23;23.70;77.60
20479;DHT22;10398;52.490;13.434;2023-05-10T12:27:54;23.80;77.30
20479;DHT22;10398;52.490;13.434;2023-05-10T12:30:25;23.90;76.40
20479;DHT22;10398;52.490;13.434;2023-05-10T12:32:52;23.90;75.70
20479;DHT22;10398;52.490;13.434;2023-05-10T12:35:18;23.80;77.90
20479;DHT22;10398;52.490;13.434;2023-05-10T12:37:47;23.90;77.00
20479;DHT22;10398;52.490;13.434;2023-05-10T12:40:13;23.90;78.10
20479;DHT22;10398;52.490;13.434;2023-05-10T12:42:39;24.00;77.60
20479;DHT22;10398;52.490;13.434;2023-05-10T12:45:06;24.10;77.70
20479;DHT22;10398;52.490;13.434;2023-05-10T12:47:32;24.10;77.40
20479;DHT22;10398;52.490;13.434;2023-05-10T12:49:59;23.90;77.60
20479;DHT22;10398;52.490;13.434;2023-05-10T12:52:25;23.70;78.00
20479;DHT22;10398;52.490;13.434;2023-05-10T12:54:52;23.60;76.80
20479;DHT22;10398;52.490;13.434;2023-05-10T12:57:18;23.60;75.50
20479;DHT22;10398;52.490;13.434;2023-05-10T12:59:44;23.70;75.30
20479;DHT22;10398;52.490;13.434;2023-05-10T13:02:10;23.80;76.90
20479;DHT22;10398;52.490;13.434;2023-05-10T13:04:36;24.00;76.80
20479;DHT22;10398;52.490;13.434;2023-05-10T13:07:07;24.00;76.50
20479;DHT22;10398;52.490;13.434;2023-05-10T13:09:33;24.10;76.20
20479;DHT22;10398;52.490;13.434;2023-05-10T13:11:59;24.20;75.40
20479;DHT22;10398;52.490;13.434;2023-05-10T13:14:25;24.10;73.20
20479;DHT22;10398;52.490;13.434;2023-05-10T13:16:51;24.00;73.80
20479;DHT22;10398;52.490;13.434;2023-05-10T13:19:16;23.80;75.20
20479;DHT22;10398;52.490;13.434;2023-05-10T13:21:43;23.80;76.30
20479;DHT22;10398;52.490;13.434;2023-05-10T13:24:10;23.80;76.60
20479;DHT22;10398;52.490;13.434;2023-05-10T13:26:36;23.80;76.00
20479;DHT22;10398;52.490;13.434;2023-05-10T13:29:02;23.90;76.20
20479;DHT22;10398;52.490;13.434;2023-05-10T13:31:28;23.90;75.30
20479;DHT22;10398;52.490;13.434;2023-05-10T13:33:54;24.10;75.20
20479;DHT22;10398;52.490;13.434;2023-05-10T13:36:19;24.20;74.80
20479;DHT22;10398;52.490;13.434;2023-05-10T13:38:45;24.30;73.90
20479;DHT22;10398;52.490;13.434;2023-05-10T13:41:11;24.30;74.10
20479;DHT22;10398;52.490;13.434;2023-05-10T13:43:37;24.40;73.10
20479;DHT22;10398;52.490;13.434;2023-05-10T13:46:02;24.50;72.80
20479;DHT22;10398;52.490;13.434;2023-05-10T13:48:28;24.40;72.20
20479;DHT22;10398;52.490;13.434;2023-05-10T13:50:54;24.30;72.90
20479;DHT22;10398;52.490;13.434;2023-05-10T13:53:20;24.20;72.30
20479;DHT22;10398;52.490;13.434;2023-05-10T13:55:46;24.20;71.10
20479;DHT22;10398;52.490;13.434;2023-05-10T13:58:12;24.20;70.60
20479;DHT22;10398;52.490;13.434;2023-05-10T14:00:38;24.20;70.70
20479;DHT22;10398;52.490;13.434;2023-05-10T14:03:04;24.30;71.50
20479;DHT22;10398;52.490;13.434;2023-05-10T14:05:30;24.50;70.70
20479;DHT22;10398;52.490;13.434;2023-05-10T14:07:56;24.60;70.70
20479;DHT22;10398;52.490;13.434;2023-05-10T14:10:22;24.60;70.50
20479;DHT22;10398;52.490;13.434;2023-05-10T14:12:48;24.70;69.60
20479;DHT22;10398;52.490;13.434;2023-05-10T14:15:13;24.70;69.30
20479;DHT22;10398;52.490;13.434;2023-05-10T14:17:39;24.70;70.30
20479;DHT22;10398;52.490;13.434;2023-05-10T14:20:05;24.80;69.80
20479;DHT22;10398;52.490;13.434;2023-05-10T14:22:31;24.70;68.80
20479;DHT22;10398;52.490;13.434;2023-05-10T14:24:56;24.70;67.30
20479;DHT22;10398;52.490;13.434;2023-05-10T14:27:23;24.80;67.30
20479;DHT22;10398;52.490;13.434;2023-05-10T14:29:49;24.80;68.00
20479;DHT22;10398;52.490;13.434;2023-05-10T14:32:14;24.80;66.50
20479;DHT22;10398;52.490;13.434;2023-05-10T14:34:40;24.80;66.60
20479;DHT22;10398;52.490;13.434;2023-05-10T14:37:06;24.90;66.60
20479;DHT22;10398;52.490;13.434;2023-05-10T14:39:31;24.90;67.00
20479;DHT22;10398;52.490;13.434;2023-05-10T14:41:58;24.90;67.00
20479;DHT22;10398;52.490;13.434;2023-05-10T14:44:24;25.00;66.70
20479;DHT22;10398;52.490;13.434;2023-05-10T14:46:50;24.80;66.30
20479;DHT22;10398;52.490;13.434;2023-05-10T14:49:16;24.90;67.20
20479;DHT22;10398;52.490;13.434;2023-05-10T14:51:41;24.80;67.60
20479;DHT22;10398;52.490;13.434;2023-05-10T14:54:07;24.90;67.20
20479;DHT22;10398;52.490;13.434;2023-05-10T14:56:33;24.70;66.70
20479;DHT22;10398;52.490;13.434;2023-05-10T14:58:58;24.70;66.30
20479;DHT22;10398;52.490;13.434;2023-05-10T15:01:25;24.60;67.10
20479;DHT22;10398;52.490;13.434;2023-05-10T15:03:51;24.60;66.60
20479;DHT22;10398;52.490;13.434;2023-05-10T15:06:17;24.40;67.90
20479;DHT22;10398;52.490;13.434;2023-05-10T15:08:42;24.60;68.00
20479;DHT22;10398;52.490;13.434;2023-05-10T15:11:08;24.40;68.30
20479;DHT22;10398;52.490;13.434;2023-05-10T15:13:34;24.40;68.10
20479;DHT22;10398;52.490;13.434;2023-05-10T15:15:59;24.40;68.50
20479;DHT22;10398;52.490;13.434;2023-05-10T15:18:25;24.20;67.90
20479;DHT22;10398;52.490;13.434;2023-05-10T15:20:51;24.10;67.80
20479;DHT22;10398;52.490;13.434;2023-05-10T15:23:17;23.90;68.40
20479;DHT22;10398;52.490;13.434;2023-05-10T15:25:42;23.80;69.20
20479;DHT22;10398;52.490;13.434;2023-05-10T15:28:08;23.60;69.00
20479;DHT22;10398;52.490;13.434;2023-05-10T15:30:34;23.60;69.50
20479;DHT22;10398;52.490;13.434;2023-05-10T15:33:00;23.50;67.50
20479;DHT22;10398;52.490;13.434;2023-05-10T15:35:26;23.30;67.80
20479;DHT22;10398;52.490;13.434;2023-05-10T15:37:52;23.30;69.00
20479;DHT22;10398;52.490;13.434;2023-05-10T15:40:17;23.20;70.60
20479;DHT22;10398;52.490;13.434;2023-05-10T15:42:43;23.20;71.30
20479;DHT22;10398;52.490;13.434;2023-05-10T15:45:10;23.00;71.70
20479;DHT22;10398;52.490;13.434;2023-05-10T15:47:36;22.90;72.10
20479;DHT22;10398;52.490;13.434;2023-05-10T15:50:01;22.90;72.30
20479;DHT22;10398;52.490;13.434;2023-05-10T15:52:27;22.80;72.50
20479;DHT22;10398;52.490;13.434;2023-05-10T15:54:53;22.80;73.00
20479;DHT22;10398;52.490;13.434;2023-05-10T15:57:19;22.80;73.30
20479;DHT22;10398;52.490;13.434;2023-05-10T15:59:44;22.90;73.20
20479;DHT22;10398;52.490;13.434;2023-05-10T16:02:10;23.00;73.60
20479;DHT22;10398;52.490;13.434;2023-05-10T16:04:36;23.10;73.30